createdAt,value
2023-03-30T00:01:17.266Z,10.00
2023-03-30T00:03:44.250Z,10.00
2023-03-30T00:06:09.082Z,10.00
2023-03-30T00:08:33.540Z,10.00
2023-03-30T00:11:02.658Z,10.00
2023-03-30T00:13:26.611Z,10.00
2023-03-30T00:15:51.625Z,10.00
2023-03-30T00:18:16.046Z,10.00
2023-03-30T00:20:43.234Z,10.00
2023-03-30T00:23:07.071Z,10.00
2023-03-30T00:25:30.852Z,10.00
2023-03-30T00:27:54.584Z,10.00
2023-03-30T00:30:20.267Z,10.00
2023-03-30T00:32:44.209Z,9.90
2023-03-30T00:35:09.224Z,9.90
2023-03-30T00:37:37.400Z,9.90
2023-03-30T00:40:01.291Z,9.90
2023-03-30T00:42:25.484Z,9.80
2023-03-30T00:45:26.584Z,9.80
2023-03-30T00:47:56.491Z,9.70
2023-03-30T00:50:23.913Z,9.80
2023-03-30T00:52:52.428Z,9.80
2023-03-30T00:55:16.405Z,9.80
2023-03-30T00:57:42.751Z,9.80
2023-03-30T01:00:11.700Z,9.80
2023-03-30T01:02:37.951Z,9.70
2023-03-30T01:05:02.416Z,9.80
2023-03-30T01:07:26.682Z,9.80
2023-03-30T01:09:53.857Z,9.80
2023-03-30T01:12:17.589Z,9.80
2023-03-30T01:14:43.191Z,9.80
2023-03-30T01:17:18.908Z,9.80
2023-03-30T01:20:49.334Z,9.80
2023-03-30T01:23:56.113Z,9.80
2023-03-30T01:26:41.707Z,9.80
2023-03-30T01:29:12.992Z,9.80
2023-03-30T01:32:10.090Z,9.80
2023-03-30T01:35:01.891Z,9.80
2023-03-30T01:37:51.660Z,9.80
2023-03-30T01:40:19.161Z,9.80
2023-03-30T01:42:51.794Z,9.80
2023-03-30T01:45:23.244Z,9.80
2023-03-30T01:47:55.524Z,9.80
2023-03-30T01:50:26.657Z,9.70
2023-03-30T01:52:58.608Z,9.80
2023-03-30T01:55:30.211Z,9.70
2023-03-30T01:57:59.379Z,9.80
2023-03-30T02:00:25.479Z,9.80
2023-03-30T02:02:55.007Z,9.80
2023-03-30T02:05:21.176Z,9.80
2023-03-30T02:07:48.292Z,9.80
2023-03-30T02:10:16.012Z,9.80
2023-03-30T02:12:41.869Z,9.80
2023-03-30T02:15:10.494Z,9.80
2023-03-30T02:17:36.001Z,9.80
2023-03-30T02:20:01.115Z,9.80
2023-03-30T02:22:26.365Z,9.80
2023-03-30T02:24:55.211Z,9.80
2023-03-30T02:27:19.642Z,9.80
2023-03-30T02:29:47.741Z,9.80
2023-03-30T02:32:22.224Z,9.80
2023-03-30T02:35:07.283Z,9.70
2023-03-30T02:37:59.284Z,9.70
2023-03-30T02:40:35.280Z,9.70
2023-03-30T02:43:24.646Z,9.70
2023-03-30T02:45:55.232Z,9.70
2023-03-30T02:48:35.071Z,9.70
2023-03-30T02:51:15.773Z,9.70
2023-03-30T02:54:08.047Z,9.60
2023-03-30T02:57:05.921Z,9.70
2023-03-30T02:59:37.302Z,9.70
2023-03-30T03:02:07.953Z,9.70
2023-03-30T03:04:34.257Z,9.70
2023-03-30T03:07:22.467Z,9.60
2023-03-30T03:09:46.601Z,9.60
2023-03-30T03:12:11.001Z,9.60
2023-03-30T03:14:35.147Z,9.60
2023-03-30T03:16:59.006Z,9.60
2023-03-30T03:19:31.262Z,9.60
2023-03-30T03:21:55.150Z,9.60
2023-03-30T03:24:19.157Z,9.60
2023-03-30T03:27:11.932Z,9.70
2023-03-30T03:29:51.121Z,9.70
2023-03-30T03:32:14.920Z,9.70
2023-03-30T03:34:44.727Z,9.70
2023-03-30T03:37:09.879Z,9.70
2023-03-30T03:39:33.806Z,9.70
2023-03-30T03:42:04.854Z,9.70
2023-03-30T03:44:28.966Z,9.70
2023-03-30T03:46:53.000Z,9.80
2023-03-30T03:49:16.919Z,9.70
2023-03-30T03:51:42.060Z,9.70
2023-03-30T03:54:05.989Z,9.70
2023-03-30T03:56:30.406Z,9.70
2023-03-30T03:58:54.239Z,9.70
2023-03-30T04:01:18.096Z,9.70
2023-03-30T04:03:42.207Z,9.70
2023-03-30T04:06:06.193Z,9.70
2023-03-30T04:08:31.727Z,9.70
2023-03-30T04:11:08.729Z,9.70
2023-03-30T04:14:01.884Z,9.70
2023-03-30T04:16:34.313Z,9.80
2023-03-30T04:19:19.810Z,9.80
2023-03-30T04:22:06.082Z,9.80
2023-03-30T04:25:05.646Z,9.90
2023-03-30T04:27:31.966Z,9.90
2023-03-30T04:30:20.726Z,9.90
2023-03-30T04:33:04.926Z,9.90
2023-03-30T04:35:51.765Z,9.90
2023-03-30T04:38:31.285Z,9.90
2023-03-30T04:40:56.861Z,9.90
2023-03-30T04:43:31.484Z,9.90
2023-03-30T04:46:24.206Z,9.90
2023-03-30T04:49:06.982Z,9.90
2023-03-30T04:51:49.170Z,9.90
2023-03-30T04:54:33.410Z,9.90
2023-03-30T04:57:24.932Z,9.90
2023-03-30T05:00:16.366Z,9.90
2023-03-30T05:03:15.399Z,10.00
2023-03-30T05:06:02.531Z,10.00
2023-03-30T05:08:41.981Z,10.00
2023-03-30T05:11:35.064Z,10.00
2023-03-30T05:14:18.871Z,10.00
2023-03-30T05:17:01.888Z,10.00
2023-03-30T05:19:35.094Z,10.00
2023-03-30T05:22:17.079Z,10.10
2023-03-30T05:25:08.522Z,10.10
2023-03-30T05:27:43.218Z,10.00
2023-03-30T05:30:34.348Z,10.10
2023-03-30T05:33:16.450Z,10.10
2023-03-30T05:35:58.606Z,10.10
2023-03-30T05:38:57.703Z,10.20
2023-03-30T05:41:53.860Z,10.20
2023-03-30T05:44:33.490Z,10.20
2023-03-30T05:47:18.919Z,10.30
2023-03-30T05:49:57.501Z,10.30
2023-03-30T05:52:26.346Z,10.20
2023-03-30T05:55:08.567Z,10.30
2023-03-30T05:57:59.243Z,10.30
2023-03-30T06:00:37.375Z,10.20
2023-03-30T06:03:12.206Z,10.30
2023-03-30T06:05:38.983Z,10.20
2023-03-30T06:08:04.622Z,10.20
2023-03-30T06:10:28.948Z,10.20
2023-03-30T06:12:53.259Z,10.20
2023-03-30T06:15:43.100Z,10.30
2023-03-30T06:18:13.268Z,10.30
2023-03-30T06:20:42.804Z,10.40
2023-03-30T06:23:06.937Z,10.40
2023-03-30T06:25:30.997Z,10.50
2023-03-30T06:27:55.082Z,10.50
2023-03-30T06:30:19.252Z,10.60
2023-03-30T06:32:46.585Z,10.70
2023-03-30T06:35:31.957Z,10.80
2023-03-30T06:37:57.026Z,10.80
2023-03-30T06:40:20.952Z,10.90
2023-03-30T06:42:47.155Z,10.90
2023-03-30T06:45:18.848Z,10.90
2023-03-30T06:47:44.130Z,11.00
2023-03-30T06:50:09.582Z,11.00
2023-03-30T06:52:55.969Z,11.10
2023-03-30T06:55:21.835Z,11.10
2023-03-30T06:57:45.666Z,11.20
2023-03-30T07:00:14.192Z,11.20
2023-03-30T07:02:57.500Z,11.20
2023-03-30T07:05:34.636Z,11.20
2023-03-30T07:08:11.252Z,11.30
2023-03-30T07:10:39.115Z,11.20
2023-03-30T07:13:04.932Z,11.30
2023-03-30T07:15:29.122Z,11.20
2023-03-30T07:17:53.628Z,11.50
2023-03-30T07:20:17.532Z,11.80
2023-03-30T07:23:07.878Z,12.00
2023-03-30T07:25:34.044Z,12.10
2023-03-30T07:28:06.656Z,12.20
2023-03-30T07:30:30.796Z,12.30
2023-03-30T07:33:00.351Z,12.40
2023-03-30T07:35:24.215Z,12.40
2023-03-30T07:37:50.813Z,12.50
2023-03-30T07:40:15.829Z,12.70
2023-03-30T07:42:44.165Z,13.10
2023-03-30T07:45:09.874Z,13.40
2023-03-30T07:47:33.808Z,13.70
2023-03-30T07:49:57.813Z,13.80
2023-03-30T07:52:21.991Z,13.70
2023-03-30T07:54:51.427Z,13.70
2023-03-30T07:57:19.682Z,13.60
2023-03-30T07:59:44.893Z,13.70
2023-03-30T08:02:23.401Z,14.00
2023-03-30T08:04:50.302Z,14.20
2023-03-30T08:07:20.569Z,14.40
2023-03-30T08:09:48.366Z,14.50
2023-03-30T08:12:12.079Z,14.80
2023-03-30T08:14:36.217Z,15.20
2023-03-30T08:17:01.331Z,15.40
2023-03-30T08:19:28.622Z,15.50
2023-03-30T08:21:52.566Z,15.90
2023-03-30T08:24:16.378Z,16.10
2023-03-30T08:26:40.095Z,16.20
2023-03-30T08:29:03.999Z,16.50
2023-03-30T08:31:27.801Z,16.70
2023-03-30T08:33:53.167Z,16.70
2023-03-30T08:36:17.043Z,16.70
2023-03-30T08:38:41.246Z,16.90
2023-03-30T08:42:11.906Z,17.00
2023-03-30T08:44:38.107Z,17.20
2023-03-30T08:47:04.407Z,17.20
2023-03-30T08:49:31.480Z,17.70
2023-03-30T08:51:57.076Z,17.70
2023-03-30T08:54:25.927Z,17.70
2023-03-30T08:57:01.380Z,17.70
2023-03-30T08:59:36.914Z,17.90
2023-03-30T09:02:03.350Z,17.80
2023-03-30T09:04:45.774Z,17.70
2023-03-30T09:07:17.166Z,17.70
2023-03-30T09:09:48.645Z,17.70
2023-03-30T09:12:21.530Z,17.90
2023-03-30T09:14:52.143Z,17.60
2023-03-30T09:17:21.272Z,17.70
2023-03-30T09:19:54.076Z,17.60
2023-03-30T09:22:19.905Z,17.60
2023-03-30T09:24:43.852Z,17.60
2023-03-30T09:27:17.134Z,17.70
2023-03-30T09:29:48.522Z,17.90
2023-03-30T09:32:16.501Z,18.00
2023-03-30T09:34:49.111Z,18.10
2023-03-30T09:37:16.338Z,18.20
2023-03-30T09:39:41.410Z,18.20
2023-03-30T09:42:29.294Z,18.10
2023-03-30T09:44:57.253Z,18.10
2023-03-30T09:47:27.053Z,18.00
2023-03-30T09:49:58.627Z,18.20
2023-03-30T09:52:24.553Z,18.10
2023-03-30T09:54:48.177Z,18.30
2023-03-30T09:57:28.419Z,18.30
2023-03-30T09:59:52.942Z,18.10
2023-03-30T10:02:22.284Z,18.10
2023-03-30T10:05:03.835Z,18.10
2023-03-30T10:07:30.884Z,18.20
2023-03-30T10:09:55.056Z,18.00
2023-03-30T10:12:19.068Z,18.00
2023-03-30T10:14:42.945Z,18.00
2023-03-30T10:17:07.985Z,18.00
2023-03-30T10:19:36.305Z,18.10
2023-03-30T10:22:04.590Z,18.10
2023-03-30T10:24:31.622Z,18.20
2023-03-30T10:26:58.926Z,18.30
2023-03-30T10:29:25.245Z,18.30
2023-03-30T10:31:51.710Z,18.30
2023-03-30T10:34:20.638Z,18.40
2023-03-30T10:36:45.349Z,18.40
2023-03-30T10:39:18.299Z,18.40
2023-03-30T10:41:43.761Z,18.40
2023-03-30T10:44:20.072Z,18.40
2023-03-30T10:46:44.295Z,18.30
2023-03-30T10:49:20.170Z,18.50
2023-03-30T10:52:01.597Z,18.60
2023-03-30T10:54:34.244Z,18.80
2023-03-30T10:57:04.383Z,19.10
2023-03-30T10:59:46.652Z,19.20
2023-03-30T11:02:45.088Z,19.50
2023-03-30T11:05:15.687Z,19.70
2023-03-30T11:07:45.570Z,19.40
2023-03-30T11:10:19.950Z,19.50
2023-03-30T11:12:49.457Z,19.60
2023-03-30T11:15:20.237Z,19.70
2023-03-30T11:17:58.976Z,19.70
2023-03-30T11:20:31.065Z,19.70
2023-03-30T11:23:02.870Z,19.70
2023-03-30T11:25:34.752Z,19.60
2023-03-30T11:28:08.736Z,19.60
2023-03-30T11:30:35.532Z,19.40
2023-03-30T11:33:07.013Z,19.50
2023-03-30T11:35:38.268Z,19.80
2023-03-30T11:38:10.501Z,20.20
2023-03-30T11:40:44.414Z,20.40
2023-03-30T11:43:11.021Z,20.80
2023-03-30T11:45:49.040Z,20.70
2023-03-30T11:48:50.770Z,20.60
2023-03-30T11:51:40.066Z,20.70
2023-03-30T11:54:31.860Z,20.80
2023-03-30T11:57:07.504Z,21.00
2023-03-30T11:59:42.901Z,20.80
2023-03-30T12:02:22.387Z,20.80
2023-03-30T12:04:51.404Z,21.00
2023-03-30T12:07:31.666Z,21.10
2023-03-30T12:09:58.110Z,21.10
2023-03-30T12:12:32.963Z,21.10
2023-03-30T12:15:11.088Z,21.20
2023-03-30T12:17:46.198Z,21.30
2023-03-30T12:20:29.334Z,21.40
2023-03-30T12:22:57.772Z,21.60
2023-03-30T12:25:31.949Z,21.70
2023-03-30T12:28:14.071Z,21.80
2023-03-30T12:30:48.579Z,21.80
2023-03-30T12:33:18.634Z,21.60
2023-03-30T12:36:00.710Z,21.40
2023-03-30T12:38:26.798Z,21.30
2023-03-30T12:41:03.903Z,21.20
2023-03-30T12:43:40.083Z,21.00
2023-03-30T12:46:14.223Z,20.90
2023-03-30T12:48:52.560Z,20.60
2023-03-30T12:51:32.047Z,20.70
2023-03-30T12:54:14.862Z,20.70
2023-03-30T12:56:47.665Z,20.60
2023-03-30T12:59:54.070Z,20.60
2023-03-30T13:02:40.573Z,20.90
2023-03-30T13:05:05.708Z,20.90
2023-03-30T13:07:36.377Z,20.90
2023-03-30T13:10:05.689Z,20.70
2023-03-30T13:12:38.032Z,20.70
2023-03-30T13:15:21.510Z,20.50
2023-03-30T13:18:00.835Z,20.60
2023-03-30T13:20:33.961Z,20.60
2023-03-30T13:23:07.874Z,20.60
2023-03-30T13:25:40.634Z,20.40
2023-03-30T13:28:37.315Z,20.20
2023-03-30T13:31:12.213Z,20.00
2023-03-30T13:33:40.072Z,19.70
2023-03-30T13:36:09.779Z,19.60
2023-03-30T13:39:05.710Z,19.40
2023-03-30T13:41:42.974Z,19.30
2023-03-30T13:44:24.875Z,18.80
2023-03-30T13:46:54.469Z,17.80
2023-03-30T13:49:35.286Z,16.80
2023-03-30T13:52:05.625Z,16.20
2023-03-30T13:54:34.460Z,15.90
2023-03-30T13:57:02.772Z,15.60
2023-03-30T13:59:31.222Z,15.20
2023-03-30T14:02:00.229Z,15.00
2023-03-30T14:04:24.712Z,14.90
2023-03-30T14:06:53.717Z,14.80
2023-03-30T14:09:23.696Z,14.60
2023-03-30T14:11:50.709Z,14.40
2023-03-30T14:14:23.214Z,14.30
2023-03-30T14:16:47.285Z,14.30
2023-03-30T14:19:22.314Z,14.30
2023-03-30T14:21:48.114Z,14.20
2023-03-30T14:24:16.796Z,14.10
2023-03-30T14:26:42.759Z,14.10
2023-03-30T14:29:24.711Z,13.90
2023-03-30T14:32:07.313Z,13.90
2023-03-30T14:34:36.189Z,13.80
2023-03-30T14:37:03.337Z,13.80
2023-03-30T14:39:27.445Z,13.80
2023-03-30T14:41:52.122Z,13.70
2023-03-30T14:44:17.598Z,13.60
2023-03-30T14:46:46.959Z,13.50
2023-03-30T14:49:19.904Z,13.50
2023-03-30T14:51:47.948Z,13.40
2023-03-30T14:54:19.014Z,13.50
2023-03-30T14:56:44.823Z,13.50
2023-03-30T14:59:09.748Z,13.50
2023-03-30T15:01:35.175Z,13.50
2023-03-30T15:04:00.696Z,13.50
2023-03-30T15:06:27.630Z,13.60
2023-03-30T15:08:53.046Z,13.60
2023-03-30T15:11:22.963Z,13.60
2023-03-30T15:13:51.966Z,13.50
2023-03-30T15:16:22.031Z,13.50
2023-03-30T15:18:46.206Z,13.50
2023-03-30T15:21:11.768Z,13.50
2023-03-30T15:23:40.944Z,13.50
2023-03-30T15:26:07.951Z,13.60
2023-03-30T15:28:37.982Z,13.60
2023-03-30T15:31:01.892Z,13.60
2023-03-30T15:33:32.649Z,13.50
2023-03-30T15:35:56.619Z,13.50
2023-03-30T15:38:30.593Z,13.50
2023-03-30T15:40:54.364Z,13.50
2023-03-30T15:43:23.284Z,13.50
2023-03-30T15:45:51.111Z,13.50
2023-03-30T15:48:16.789Z,13.50
2023-03-30T15:50:41.189Z,13.50
2023-03-30T15:53:06.103Z,13.50
2023-03-30T15:55:33.685Z,13.50
2023-03-30T15:57:57.651Z,13.60
2023-03-30T16:00:25.706Z,13.60
2023-03-30T16:02:57.437Z,13.60
2023-03-30T16:05:24.134Z,13.60
2023-03-30T16:07:48.362Z,13.60
2023-03-30T16:10:15.908Z,13.60
2023-03-30T16:12:43.104Z,13.50
2023-03-30T16:15:08.133Z,13.50
2023-03-30T16:17:34.399Z,13.40
2023-03-30T16:19:58.237Z,13.40
2023-03-30T16:22:21.945Z,13.40
2023-03-30T16:24:46.350Z,13.50
2023-03-30T16:27:12.004Z,13.60
2023-03-30T16:29:35.833Z,13.60
2023-03-30T16:32:00.043Z,13.70
2023-03-30T16:34:26.701Z,13.80
2023-03-30T16:36:51.046Z,13.70
2023-03-30T16:39:20.429Z,13.80
2023-03-30T16:41:44.822Z,13.80
2023-03-30T16:44:08.671Z,13.80
2023-03-30T16:46:32.366Z,13.70
2023-03-30T16:48:56.186Z,13.70
2023-03-30T16:51:21.624Z,13.80
2023-03-30T16:53:45.442Z,13.80
2023-03-30T16:56:17.888Z,13.70
2023-03-30T16:58:41.608Z,13.80
2023-03-30T17:01:05.776Z,13.80
2023-03-30T17:03:30.162Z,13.90
2023-03-30T17:05:53.867Z,13.70
2023-03-30T17:08:23.597Z,13.70
2023-03-30T17:10:47.225Z,13.70
2023-03-30T17:13:11.599Z,13.60
2023-03-30T17:15:38.667Z,13.70
2023-03-30T17:18:02.752Z,13.60
2023-03-30T17:20:31.834Z,13.60
2023-03-30T17:22:55.702Z,13.60
2023-03-30T17:25:23.526Z,13.60
2023-03-30T17:27:48.033Z,13.50
2023-03-30T17:30:21.236Z,13.40
2023-03-30T17:32:45.269Z,13.40
2023-03-30T17:35:10.538Z,13.30
2023-03-30T17:37:34.317Z,13.30
2023-03-30T17:39:58.049Z,13.20
2023-03-30T17:42:23.248Z,13.10
2023-03-30T17:44:46.933Z,13.00
2023-03-30T17:47:11.051Z,13.00
2023-03-30T17:49:34.764Z,12.90
2023-03-30T17:51:58.560Z,12.90
2023-03-30T17:54:24.700Z,12.80
2023-03-30T17:56:48.544Z,12.70
2023-03-30T17:59:14.173Z,12.70
2023-03-30T18:01:38.000Z,12.60
2023-03-30T18:04:04.262Z,12.60
2023-03-30T18:06:28.879Z,12.50
2023-03-30T18:08:52.967Z,12.50
2023-03-30T18:11:16.783Z,12.50
2023-03-30T18:13:40.485Z,12.40
2023-03-30T18:16:06.177Z,12.30
2023-03-30T18:18:31.976Z,12.30
2023-03-30T18:20:57.776Z,12.30
2023-03-30T18:23:22.461Z,12.20
2023-03-30T18:25:46.595Z,12.20
2023-03-30T18:28:18.317Z,12.10
2023-03-30T18:30:42.168Z,12.10
2023-03-30T18:33:08.089Z,12.10
2023-03-30T18:35:35.880Z,12.00
2023-03-30T18:38:00.720Z,12.00
2023-03-30T18:40:32.137Z,11.90
2023-03-30T18:42:56.926Z,11.90
2023-03-30T18:45:23.613Z,11.80
2023-03-30T18:47:47.429Z,11.80
2023-03-30T18:50:18.040Z,11.80
2023-03-30T18:52:42.011Z,11.80
2023-03-30T18:55:07.140Z,11.80
2023-03-30T18:57:30.909Z,11.80
2023-03-30T18:59:54.599Z,11.80
2023-03-30T19:02:18.406Z,11.90
2023-03-30T19:04:42.247Z,11.90
2023-03-30T19:07:07.473Z,11.80
2023-03-30T19:09:42.472Z,11.70
2023-03-30T19:12:07.745Z,11.50
2023-03-30T19:14:31.358Z,11.40
2023-03-30T19:16:55.099Z,11.30
2023-03-30T19:19:19.020Z,11.20
2023-03-30T19:21:43.261Z,11.10
2023-03-30T19:24:08.994Z,11.10
2023-03-30T19:26:32.981Z,11.00
2023-03-30T19:28:56.645Z,11.00
2023-03-30T19:31:20.455Z,10.90
2023-03-30T19:33:44.218Z,10.90
2023-03-30T19:36:08.920Z,10.90
2023-03-30T19:38:32.650Z,10.80
2023-03-30T19:41:01.557Z,10.80
2023-03-30T19:43:25.245Z,10.70
2023-03-30T19:45:52.363Z,10.70
2023-03-30T19:48:16.121Z,10.70
2023-03-30T19:50:40.788Z,10.80
2023-03-30T19:53:04.507Z,10.80
2023-03-30T19:55:29.418Z,10.80
2023-03-30T19:57:54.474Z,10.80
2023-03-30T20:00:19.872Z,10.70
2023-03-30T20:02:45.195Z,10.70
2023-03-30T20:05:13.077Z,10.60
2023-03-30T20:07:37.288Z,10.60
2023-03-30T20:10:01.173Z,10.60
2023-03-30T20:12:24.831Z,10.60
2023-03-30T20:14:50.067Z,10.60
2023-03-30T20:17:13.760Z,10.50
2023-03-30T20:19:40.648Z,10.40
2023-03-30T20:22:04.512Z,10.40
2023-03-30T20:24:28.330Z,10.40
2023-03-30T20:26:53.401Z,10.40
2023-03-30T20:29:17.163Z,10.40
2023-03-30T20:31:42.346Z,10.40
2023-03-30T20:34:06.538Z,10.40
2023-03-30T20:36:30.207Z,10.40
2023-03-30T20:38:56.054Z,10.40
2023-03-30T20:41:21.628Z,10.40
2023-03-30T20:43:56.530Z,10.40
2023-03-30T20:46:22.385Z,10.30
2023-03-30T20:48:54.057Z,10.30
2023-03-30T20:51:17.777Z,10.20
2023-03-30T20:53:42.466Z,10.30
2023-03-30T20:56:09.272Z,10.20
2023-03-30T20:58:33.106Z,10.20
2023-03-30T21:01:01.617Z,10.20
2023-03-30T21:03:29.255Z,10.10
2023-03-30T21:06:01.581Z,10.10
2023-03-30T21:08:25.516Z,10.10
2023-03-30T21:10:49.354Z,10.10
2023-03-30T21:13:15.080Z,10.10
2023-03-30T21:15:38.733Z,10.10
2023-03-30T21:18:02.502Z,10.10
2023-03-30T21:20:26.456Z,10.10
2023-03-30T21:22:51.654Z,10.10
2023-03-30T21:25:15.383Z,10.10
2023-03-30T21:27:39.149Z,10.10
2023-03-30T21:30:02.776Z,10.10
2023-03-30T21:32:28.686Z,10.10
2023-03-30T21:34:53.782Z,10.10
2023-03-30T21:37:17.558Z,10.10
2023-03-30T21:39:44.199Z,10.10
2023-03-30T21:42:08.168Z,10.20
2023-03-30T21:44:34.896Z,10.10
2023-03-30T21:46:58.667Z,10.10
2023-03-30T21:49:22.534Z,10.10
2023-03-30T21:51:46.971Z,10.10
2023-03-30T21:54:10.991Z,10.10
2023-03-30T21:56:36.629Z,10.10
2023-03-30T21:59:00.731Z,10.10
2023-03-30T22:01:25.240Z,10.10
2023-03-30T22:03:49.235Z,10.20
2023-03-30T22:06:16.284Z,10.20
2023-03-30T22:08:40.579Z,10.20
2023-03-30T22:11:08.646Z,10.20
2023-03-30T22:13:34.102Z,10.20
2023-03-30T22:15:59.024Z,10.20
2023-03-30T22:18:22.934Z,10.20
2023-03-30T22:20:47.416Z,10.30
2023-03-30T22:23:11.226Z,10.30
2023-03-30T22:25:35.003Z,10.30
2023-03-30T22:28:01.228Z,10.30
2023-03-30T22:30:26.443Z,10.30
2023-03-30T22:32:50.217Z,10.30
2023-03-30T22:35:14.023Z,10.30
2023-03-30T22:37:38.071Z,10.40
2023-03-30T22:40:01.827Z,10.30
2023-03-30T22:42:26.022Z,10.40
2023-03-30T22:44:50.369Z,10.40
2023-03-30T22:47:15.645Z,10.40
2023-03-30T22:49:40.093Z,10.40
2023-03-30T22:52:04.808Z,10.40
2023-03-30T22:54:28.539Z,10.40
2023-03-30T22:56:52.271Z,10.40
2023-03-30T22:59:16.545Z,10.40
2023-03-30T23:01:40.362Z,10.40
2023-03-30T23:04:05.870Z,10.30
2023-03-30T23:06:29.604Z,10.30
2023-03-30T23:08:54.649Z,10.30
2023-03-30T23:11:21.612Z,10.40
2023-03-30T23:13:45.384Z,10.30
2023-03-30T23:16:10.920Z,10.30
2023-03-30T23:18:35.164Z,10.30
2023-03-30T23:21:06.251Z,10.40
2023-03-30T23:23:30.637Z,10.40
2023-03-30T23:25:54.501Z,10.40
2023-03-30T23:28:18.485Z,10.40
2023-03-30T23:30:42.323Z,10.30
2023-03-30T23:33:06.616Z,10.30
2023-03-30T23:35:30.386Z,10.30
2023-03-30T23:37:55.602Z,10.30
2023-03-30T23:40:19.508Z,10.30
2023-03-30T23:42:43.274Z,10.30
2023-03-30T23:45:08.913Z,10.30
2023-03-30T23:47:32.646Z,10.30
2023-03-30T23:49:56.361Z,10.30
2023-03-30T23:52:20.190Z,10.30
2023-03-30T23:54:45.413Z,10.20
2023-03-30T23:57:09.896Z,10.30
2023-03-30T23:59:33.691Z,10.20
